Time;durP1;ratioP1;P1;durP2;ratioP2;P2;SDS_P1;SDS_P2;PMS_P1;PMS_P2;Temp;Humidity;BMP_temperature;BMP_pressure;BME280_temperature;BME280_humidity;BME280_pressure;Samples;Min_cycle;Max_cycle;Signal;HPM_P1;HPM_P2
2023/10/13 00:03:00;;;;;;;9.80;6.90;;;;;;;9.16;91.15;100695.77;105498;1267;100569;-85
2023/10/13 00:05:47;;;;;;;11.50;7.20;;;;;;;9.13;90.55;100692.02;105927;1260;97968;-86
2023/10/13 00:08:51;;;;;;;12.70;8.10;;;;;;;9.08;90.27;100690.97;105772;1261;98009;-84
2023/10/13 00:11:44;;;;;;;16.40;9.30;;;;;;;9.03;90.02;100689.19;105504;1266;101503;-85
2023/10/13 00:14:33;;;;;;;13.20;7.90;;;;;;;8.98;90.00;100692.70;105757;1260;99249;-85
2023/10/13 00:17:20;;;;;;;23.50;8.20;;;;;;;8.93;90.71;100701.26;105642;1260;98709;-84
2023/10/13 00:20:12;;;;;;;10.00;7.40;;;;;;;8.87;90.92;100710.30;105746;1266;97946;-84
2023/10/13 00:22:59;;;;;;;14.70;7.80;;;;;;;8.86;91.38;100706.91;105670;1260;99840;-84
2023/10/13 00:25:50;;;;;;;11.10;7.40;;;;;;;8.84;91.46;100707.58;105641;1263;101421;-82
2023/10/13 00:28:35;;;;;;;11.20;7.40;;;;;;;8.82;91.25;100705.14;105710;1266;99268;-84
2023/10/13 00:31:21;;;;;;;14.60;8.70;;;;;;;8.81;91.58;100700.84;105828;1266;97963;-84
2023/10/13 00:34:25;;;;;;;15.20;8.50;;;;;;;8.81;91.86;100699.77;105603;1270;98061;-84
2023/10/13 00:39:56;;;;;;;11.80;8.00;;;;;;;8.81;92.02;100702.67;105798;1260;102873;-83
2023/10/13 00:42:51;;;;;;;13.00;8.30;;;;;;;8.77;91.31;100704.12;105685;1267;100450;-84
2023/10/13 00:45:36;;;;;;;12.70;8.30;;;;;;;8.72;90.97;100704.70;105737;1262;98169;-83
2023/10/13 00:48:34;;;;;;;12.60;8.60;;;;;;;8.67;90.92;100698.52;105525;1267;97938;-84
2023/10/13 00:51:40;;;;;;;15.40;7.80;;;;;;;8.62;91.08;100700.15;105550;1267;98472;-83
2023/10/13 00:54:26;;;;;;;11.20;7.40;;;;;;;8.60;91.27;100711.50;105796;1266;102275;-83
2023/10/13 00:57:29;;;;;;;37.00;9.20;;;;;;;8.56;91.01;100718.65;105589;1268;99199;-83
2023/10/13 01:00:25;;;;;;;20.80;12.10;;;;;;;8.49;90.41;100715.45;105757;1265;98559;-83
2023/10/13 01:03:12;;;;;;;18.90;11.20;;;;;;;8.42;90.05;100715.91;105645;1261;97870;-83
2023/10/13 01:05:59;;;;;;;19.40;11.60;;;;;;;8.34;89.39;100716.98;105608;1260;98497;-82
2023/10/13 01:08:50;;;;;;;14.40;10.00;;;;;;;8.27;89.16;100721.14;105585;1267;102581;-83
2023/10/13 01:11:37;;;;;;;14.10;9.40;;;;;;;8.20;89.00;100721.20;105837;1266;100318;-83
2023/10/13 01:14:27;;;;;;;15.10;10.30;;;;;;;8.11;88.58;100721.32;105974;1260;98006;-84
2023/10/13 01:17:13;;;;;;;15.20;10.90;;;;;;;8.03;88.94;100719.23;105590;1266;98112;-83
2023/10/13 01:19:58;;;;;;;12.20;9.00;;;;;;;7.98;89.34;100712.00;105511;1261;98521;-84
2023/10/13 01:22:44;;;;;;;13.30;9.50;;;;;;;7.97;89.88;100710.48;105747;1261;101341;-83
2023/10/13 01:25:29;;;;;;;17.40;11.00;;;;;;;7.97;89.97;100709.42;105527;1261;100546;-85
2023/10/13 01:28:16;;;;;;;15.90;11.20;;;;;;;7.96;90.34;100710.00;105696;1261;98504;-85
2023/10/13 01:31:03;;;;;;;18.00;11.20;;;;;;;7.96;90.45;100716.46;105488;1261;98145;-85
2023/10/13 01:33:51;;;;;;;18.00;11.30;;;;;;;7.97;90.54;100718.63;105523;1267;96322;-84
2023/10/13 01:36:40;;;;;;;19.30;12.10;;;;;;;7.97;90.87;100720.56;105731;1260;102586;-83
2023/10/13 01:39:26;;;;;;;15.70;11.20;;;;;;;7.97;91.11;100718.25;106100;1260;99276;-85
2023/10/13 01:42:19;;;;;;;19.10;11.90;;;;;;;7.96;91.66;100721.92;105609;1267;98675;-82
2023/10/13 01:45:06;;;;;;;16.90;11.10;;;;;;;7.98;92.02;100718.02;105611;1260;97934;-84
2023/10/13 01:47:52;;;;;;;16.90;10.80;;;;;;;8.03;92.70;100715.69;105820;1264;98877;-84
2023/10/13 01:50:38;;;;;;;15.40;10.40;;;;;;;8.08;93.26;100716.58;105666;1267;102848;-83
2023/10/13 01:53:23;;;;;;;14.70;9.40;;;;;;;8.12;93.54;100707.58;105600;1264;100458;-84
2023/10/13 01:56:12;;;;;;;15.70;10.60;;;;;;;8.18;93.96;100708.34;105722;1262;97963;-83
2023/10/13 01:58:57;;;;;;;17.80;10.40;;;;;;;8.23;94.11;100716.67;105715;1265;98077;-85
2023/10/13 02:01:43;;;;;;;17.40;11.40;;;;;;;8.24;93.76;100712.58;105890;1261;98520;-85
2023/10/13 02:04:28;;;;;;;17.60;10.50;;;;;;;8.24;93.21;100711.30;105734;1267;102809;-86
2023/10/13 02:07:16;;;;;;;16.20;10.10;;;;;;;8.25;93.08;100714.51;105686;1264;99175;-86
2023/10/13 02:10:05;;;;;;;16.70;9.70;;;;;;;8.23;92.93;100712.57;105552;1260;97994;-86
2023/10/13 02:12:55;;;;;;;16.20;9.90;;;;;;;8.21;92.77;100709.50;105743;1261;98057;-85
2023/10/13 02:15:42;;;;;;;17.80;9.90;;;;;;;8.19;92.97;100710.01;105686;1260;98431;-84
2023/10/13 02:18:33;;;;;;;17.10;10.00;;;;;;;8.18;93.34;100709.38;105675;1261;102201;-86
2023/10/13 02:21:19;;;;;;;15.30;9.40;;;;;;;8.19;93.91;100713.11;105817;1260;99184;-84
2023/10/13 02:24:12;;;;;;;15.70;10.30;;;;;;;8.20;93.98;100715.30;105817;1262;97891;-83
2023/10/13 02:27:05;;;;;;;14.80;8.90;;;;;;;8.20;93.83;100722.41;105622;1261;98034;-83
2023/10/13 02:29:54;;;;;;;14.60;10.20;;;;;;;8.21;93.83;100726.15;105738;1261;97910;-83
2023/10/13 02:32:41;;;;;;;18.70;11.20;;;;;;;8.21;93.59;100720.41;105728;1261;115724;-83
2023/10/13 02:35:31;;;;;;;15.10;9.40;;;;;;;8.19;93.39;100724.84;105845;1260;99126;-83
2023/10/13 02:38:26;;;;;;;15.60;9.30;;;;;;;8.21;93.87;100716.71;105791;1266;99512;-85
2023/10/13 02:41:26;;;;;;;14.20;8.70;;;;;;;8.24;94.26;100712.11;105640;1266;98056;-85
2023/10/13 02:44:20;;;;;;;16.90;9.60;;;;;;;8.26;93.97;100711.83;105445;1261;98497;-84
2023/10/13 02:47:14;;;;;;;12.60;8.40;;;;;;;8.28;93.94;100705.03;105650;1264;103182;-84
2023/10/13 02:50:00;;;;;;;17.60;9.80;;;;;;;8.31;94.31;100704.06;105684;1263;100558;-83
2023/10/13 02:52:49;;;;;;;15.40;10.30;;;;;;;8.34;94.61;100710.82;105577;1260;97977;-83
2023/10/13 02:55:36;;;;;;;16.20;10.50;;;;;;;8.36;94.27;100711.48;105490;1260;98063;-83
2023/10/13 02:58:26;;;;;;;13.40;9.40;;;;;;;8.36;93.89;100705.80;105749;1266;98446;-84
2023/10/13 03:01:17;;;;;;;12.40;9.10;;;;;;;8.33;93.70;100713.39;105845;1264;102514;-84
2023/10/13 03:04:03;;;;;;;15.10;9.40;;;;;;;8.29;93.48;100716.70;105888;1261;100811;-84
2023/10/13 03:06:49;;;;;;;13.80;9.20;;;;;;;8.26;93.69;100715.58;105866;1262;98984;-84
2023/10/13 03:09:37;;;;;;;16.10;9.60;;;;;;;8.25;93.75;100711.63;105725;1260;97874;-85
2023/10/13 03:12:24;;;;;;;13.20;9.70;;;;;;;8.25;93.84;100712.86;105589;1261;98525;-83
2023/10/13 03:15:17;;;;;;;15.30;9.50;;;;;;;8.22;93.51;100712.44;105651;1261;102426;-83
2023/10/13 03:18:03;;;;;;;16.70;9.80;;;;;;;8.19;93.53;100708.94;105737;1267;99107;-84
2023/10/13 03:20:56;;;;;;;18.60;9.90;;;;;;;8.18;93.64;100706.38;105737;1265;99088;-85
2023/10/13 03:23:46;;;;;;;15.70;9.10;;;;;;;8.17;93.97;100706.05;106266;1260;98052;-84
2023/10/13 03:26:36;;;;;;;14.50;10.00;;;;;;;8.18;94.10;100707.20;105797;1260;98427;-86
2023/10/13 03:29:24;;;;;;;14.30;9.60;;;;;;;8.17;94.08;100712.12;105713;1264;102607;-84
2023/10/13 03:32:15;;;;;;;15.80;9.80;;;;;;;8.17;94.25;100712.35;105862;1264;99199;-84
2023/10/13 03:37:46;;;;;;;13.60;9.00;;;;;;;8.11;93.50;100725.63;105688;1264;97963;-85
2023/10/13 03:43:21;;;;;;;14.70;9.30;;;;;;;7.99;92.90;100734.10;105749;1264;101407;-84
2023/10/13 03:46:10;;;;;;;12.80;8.80;;;;;;;7.94;93.02;100733.42;105743;1266;99226;-84
2023/10/13 03:49:01;;;;;;;13.20;8.70;;;;;;;7.89;92.90;100733.36;105935;1260;97942;-84
2023/10/13 03:51:48;;;;;;;15.20;8.70;;;;;;;7.85;93.13;100730.46;105998;1260;98013;-85
2023/10/13 03:54:35;;;;;;;14.80;8.90;;;;;;;7.82;93.37;100728.96;105714;1260;97976;-83
2023/10/13 03:57:25;;;;;;;12.80;9.00;;;;;;;7.83;93.55;100728.76;105699;1260;101503;-86
2023/10/13 04:00:24;;;;;;;11.70;8.40;;;;;;;7.82;93.01;100732.39;105824;1267;99311;-84
2023/10/13 04:03:16;;;;;;;13.30;8.00;;;;;;;7.78;92.83;100730.85;105570;1262;97878;-86
2023/10/13 04:06:16;;;;;;;11.20;7.60;;;;;;;7.75;93.10;100723.92;105779;1260;98425;-86
2023/10/13 04:15:23;;;;;;;11.70;7.50;;;;;;;7.71;93.51;100718.85;105739;1267;100473;-82
2023/10/13 04:18:33;;;;;;;12.30;8.00;;;;;;;7.74;93.94;100718.89;105854;1260;98545;-85
2023/10/13 04:21:39;;;;;;;14.70;8.10;;;;;;;7.77;94.32;100716.92;105918;1263;98183;-82
2023/10/13 04:27:53;;;;;;;14.90;9.30;;;;;;;7.84;95.25;100709.73;105746;1261;101548;-84
2023/10/13 04:34:01;;;;;;;15.80;9.90;;;;;;;7.90;96.02;100703.02;105710;1267;97972;-85
2023/10/13 04:36:55;;;;;;;14.90;9.80;;;;;;;7.94;96.75;100701.03;105699;1260;98951;-85
2023/10/13 04:39:43;;;;;;;18.50;9.80;;;;;;;7.97;96.48;100705.42;105670;1263;99659;-85
2023/10/13 04:54:19;;;;;;;17.10;9.40;;;;;;;7.78;94.79;100721.17;105800;1261;97965;-85
2023/10/13 04:57:25;;;;;;;17.10;11.70;;;;;;;7.78;94.58;100723.75;105773;1264;101342;-84
2023/10/13 05:52:18;;;;;;;21.00;10.90;;;;;;;7.05;94.30;100748.50;107153;1261;96616;-86
2023/10/13 06:28:59;;;;;;;20.20;13.20;;;;;;;7.64;98.83;100783.73;105836;1260;101386;-86
2023/10/13 06:31:46;;;;;;;19.00;11.80;;;;;;;7.72;99.36;100778.98;105859;1264;99100;-85
2023/10/13 06:34:47;;;;;;;22.80;12.40;;;;;;;7.81;99.61;100777.29;105821;1260;98485;-85
2023/10/13 06:37:34;;;;;;;21.40;13.20;;;;;;;7.90;99.78;100776.70;105824;1261;97977;-85
2023/10/13 06:40:25;;;;;;;20.70;12.50;;;;;;;7.98;99.99;100772.01;105681;1261;97965;-84
2023/10/13 06:43:17;;;;;;;21.40;13.20;;;;;;;8.08;100.00;100767.95;105919;1261;103519;-84
2023/10/13 06:46:03;;;;;;;20.00;13.50;;;;;;;8.15;100.00;100767.14;105705;1260;99712;-84
2023/10/13 06:48:53;;;;;;;21.90;13.30;;;;;;;8.21;100.00;100765.95;105695;1260;99061;-85
2023/10/13 06:51:39;;;;;;;22.30;13.90;;;;;;;8.28;100.00;100777.88;105874;1260;99446;-86
2023/10/13 06:54:25;;;;;;;24.70;14.00;;;;;;;8.34;100.00;100788.06;105560;1270;98471;-83
2023/10/13 06:57:14;;;;;;;21.00;13.40;;;;;;;8.40;100.00;100781.52;106098;1261;102448;-85
2023/10/13 07:00:07;;;;;;;23.10;14.00;;;;;;;8.46;100.00;100777.63;105702;1260;99390;-79
2023/10/13 07:02:53;;;;;;;24.10;14.90;;;;;;;8.54;100.00;100779.59;105987;1267;97985;-81
2023/10/13 07:05:41;;;;;;;23.00;15.10;;;;;;;8.63;100.00;100782.17;105801;1260;98096;-80
2023/10/13 07:08:26;;;;;;;25.90;16.60;;;;;;;8.71;100.00;100783.77;105658;1264;98486;-82
2023/10/13 07:11:19;;;;;;;24.40;15.60;;;;;;;8.78;100.00;100784.05;105684;1264;101443;-86
2023/10/13 07:14:11;;;;;;;26.30;15.40;;;;;;;8.85;100.00;100779.69;105946;1264;99853;-83
2023/10/13 07:17:00;;;;;;;26.90;16.20;;;;;;;8.94;100.00;100783.08;105832;1261;98855;-82
2023/10/13 07:19:53;;;;;;;28.50;17.20;;;;;;;9.04;100.00;100779.30;105804;1261;97895;-84
2023/10/13 07:22:39;;;;;;;26.20;17.30;;;;;;;9.14;100.00;100775.95;105707;1264;98341;-82
2023/10/13 07:25:26;;;;;;;32.40;18.50;;;;;;;9.25;100.00;100777.66;105690;1264;102099;-81
2023/10/13 07:28:11;;;;;;;28.60;16.20;;;;;;;9.40;100.00;100777.88;105849;1260;108730;-83
2023/10/13 07:33:47;;;;;;;26.30;14.00;;;;;;;9.62;100.00;100776.86;106247;1261;97963;-88
2023/10/13 07:36:50;;;;;;;25.70;14.40;;;;;;;9.73;100.00;100771.84;106392;1260;97966;-92
2023/10/13 07:43:12;;;;;;;26.10;13.90;;;;;;;9.97;100.00;100769.25;106300;1267;99618;-90
2023/10/13 07:45:59;;;;;;;25.40;13.70;;;;;;;10.07;100.00;100770.77;106490;1276;97924;-92
2023/10/13 07:49:15;;;;;;;29.50;13.40;;;;;;;10.17;100.00;100768.46;106481;1265;97968;-93
2023/10/13 07:52:51;;;;;;;;;;;;;;;;;;;;;
2023/10/13 07:55:35;;;;;;;35.10;15.20;;;;;;;10.36;100.00;100763.19;106461;1264;101491;-90
2023/10/13 07:58:25;;;;;;;28.60;13.90;;;;;;;10.45;100.00;100759.34;105786;1263;100547;-87
2023/10/13 08:01:16;;;;;;;35.40;15.70;;;;;;;10.54;100.00;100755.11;105591;1267;100230;-83
2023/10/13 08:04:11;;;;;;;29.30;13.80;;;;;;;10.61;100.00;100751.89;105748;1266;97981;-84
2023/10/13 08:07:03;;;;;;;30.00;17.00;;;;;;;10.68;100.00;100750.10;105713;1264;98465;-83
2023/10/13 08:09:51;;;;;;;22.90;13.00;;;;;;;10.75;100.00;100742.83;105423;1264;102135;-83
2023/10/13 08:12:37;;;;;;;30.50;12.70;;;;;;;10.81;100.00;100738.41;105457;1274;100519;-83
2023/10/13 08:15:32;;;;;;;23.00;12.80;;;;;;;10.86;100.00;100734.70;105549;1264;99917;-84
2023/10/13 08:18:30;;;;;;;27.20;13.80;;;;;;;10.93;100.00;100731.20;105627;1267;97902;-83
2023/10/13 08:21:22;;;;;;;21.40;12.80;;;;;;;11.01;100.00;100729.90;105616;1264;97849;-83
2023/10/13 08:24:09;;;;;;;23.40;11.00;;;;;;;11.07;100.00;100722.31;105531;1264;102433;-82
2023/10/13 08:33:17;;;;;;;24.90;12.00;;;;;;;11.31;100.00;100715.42;105444;1268;97941;-82
2023/10/13 08:43:22;;;;;;;27.70;11.50;;;;;;;11.54;100.00;100718.92;105447;1266;99175;-86
2023/10/13 08:48:31;;;;;;;32.60;11.80;;;;;;;11.67;100.00;100719.33;105465;1264;97889;-86
2023/10/13 08:52:06;;;;;;;28.50;12.50;;;;;;;11.72;100.00;100724.75;105638;1264;97870;-85
2023/10/13 08:54:33;;;;;;;24.60;12.10;;;;;;;11.78;100.00;100719.73;105603;1264;101659;-85
2023/10/13 08:57:19;;;;;;;22.60;11.10;;;;;;;11.84;100.00;100716.45;105531;1264;99191;-84
2023/10/13 09:00:30;;;;;;;25.80;10.60;;;;;;;11.89;100.00;100709.90;105770;1261;99015;-84
2023/10/13 09:06:14;;;;;;;27.30;11.20;;;;;;;12.01;100.00;100716.98;105589;1261;98438;-83
2023/10/13 09:09:07;;;;;;;28.70;10.80;;;;;;;12.06;100.00;100712.89;105526;1264;102003;-84
2023/10/13 09:12:09;;;;;;;22.60;8.60;;;;;;;12.12;100.00;100711.58;105504;1262;99196;-84
2023/10/13 09:14:57;;;;;;;15.90;8.10;;;;;;;12.18;100.00;100713.47;105632;1260;97935;-84
2023/10/13 09:18:12;;;;;;;19.00;8.50;;;;;;;12.25;100.00;100709.59;105348;1261;98166;-84
2023/10/13 09:27:04;;;;;;;20.50;8.20;;;;;;;12.51;100.00;100690.80;105737;1261;99241;-82
2023/10/13 09:30:21;;;;;;;24.90;9.00;;;;;;;12.62;100.00;100689.25;105174;1264;99164;-83
2023/10/13 09:33:15;;;;;;;16.20;8.00;;;;;;;12.72;100.00;100686.63;105643;1265;98287;-82
2023/10/13 09:36:04;;;;;;;21.70;8.10;;;;;;;12.81;100.00;100688.87;105646;1266;98488;-84
2023/10/13 09:39:12;;;;;;;23.80;8.80;;;;;;;12.89;100.00;100688.58;105479;1264;102607;-84
2023/10/13 09:41:59;;;;;;;18.50;8.00;;;;;;;12.95;100.00;100685.55;105671;1265;100441;-83
2023/10/13 09:44:55;;;;;;;22.30;8.60;;;;;;;13.02;100.00;100678.67;105530;1263;99901;-82
2023/10/13 09:47:42;;;;;;;24.30;8.70;;;;;;;13.12;100.00;100676.66;105497;1267;97934;-82
2023/10/13 09:50:33;;;;;;;20.40;8.60;;;;;;;13.26;100.00;100679.95;105441;1264;98512;-84
2023/10/13 09:53:20;;;;;;;20.30;8.90;;;;;;;13.36;100.00;100676.38;105935;1262;101426;-83
2023/10/13 09:56:19;;;;;;;17.60;7.60;;;;;;;13.46;100.00;100677.07;105886;1262;99094;-84
2023/10/13 09:59:16;;;;;;;18.20;8.00;;;;;;;13.55;100.00;100673.45;105461;1262;99106;-82
2023/10/13 10:02:09;;;;;;;23.30;7.90;;;;;;;13.66;100.00;100673.55;105614;1262;97891;-83
2023/10/13 10:05:39;;;;;;;23.50;8.60;;;;;;;13.77;100.00;100673.19;105555;1261;98465;-81
2023/10/13 10:08:04;;;;;;;19.00;7.40;;;;;;;13.86;100.00;100670.95;105484;1266;103315;-83
2023/10/13 10:11:05;;;;;;;17.50;8.20;;;;;;;13.92;100.00;100664.30;105999;1261;99150;-85
2023/10/13 10:14:00;;;;;;;16.40;7.10;;;;;;;13.97;100.00;100657.95;105692;1260;99944;-84
2023/10/13 10:17:09;;;;;;;18.60;7.90;;;;;;;14.02;100.00;100657.00;105652;1267;97968;-85
2023/10/13 10:19:59;;;;;;;16.60;7.40;;;;;;;14.09;100.00;100651.78;105537;1263;97994;-84
2023/10/13 10:22:58;;;;;;;18.30;7.90;;;;;;;14.15;100.00;100645.39;105618;1264;101497;-84
2023/10/13 10:25:46;;;;;;;19.10;7.90;;;;;;;14.21;100.00;100635.36;105592;1270;99332;-84
2023/10/13 10:28:36;;;;;;;20.00;7.90;;;;;;;14.29;100.00;100623.88;105893;1263;98489;-81
2023/10/13 10:31:34;;;;;;;20.00;8.00;;;;;;;14.37;100.00;100615.75;108055;1261;95522;-83
2023/10/13 10:34:20;;;;;;;21.60;7.40;;;;;;;14.47;100.00;100610.80;106257;1260;97846;-81
2023/10/13 10:37:09;;;;;;;18.30;7.60;;;;;;;14.56;100.00;100601.52;106018;1264;102049;-80
2023/10/13 10:39:57;;;;;;;20.00;8.00;;;;;;;14.65;100.00;100593.02;106132;1262;99821;-82
2023/10/13 10:42:42;;;;;;;17.70;8.10;;;;;;;14.76;100.00;100588.71;105957;1264;98993;-82
2023/10/13 10:45:34;;;;;;;16.90;7.60;;;;;;;14.85;100.00;100586.02;105839;1262;98976;-81
2023/10/13 10:48:21;;;;;;;17.30;8.30;;;;;;;14.91;100.00;100588.14;105739;1261;96709;-82
2023/10/13 10:51:07;;;;;;;20.80;7.60;;;;;;;15.00;100.00;100586.41;105846;1261;102126;-82
2023/10/13 10:53:53;;;;;;;19.70;9.90;;;;;;;15.06;100.00;100583.09;105840;1267;99177;-81
2023/10/13 10:56:38;;;;;;;23.10;8.30;;;;;;;15.14;100.00;100581.41;105934;1262;97947;-82
2023/10/13 10:59:25;;;;;;;18.80;8.60;;;;;;;15.22;100.00;100581.52;105993;1261;98555;-82
2023/10/13 11:02:15;;;;;;;16.20;8.40;;;;;;;15.31;100.00;100575.45;105891;1261;98455;-81
2023/10/13 11:05:01;;;;;;;19.60;8.30;;;;;;;15.42;100.00;100569.92;105890;1261;102674;-81
2023/10/13 11:07:50;;;;;;;19.70;7.80;;;;;;;15.53;100.00;100563.49;105585;1266;99149;-83
2023/10/13 11:10:46;;;;;;;21.10;8.70;;;;;;;15.63;100.00;100557.10;105892;1261;99004;-82
2023/10/13 11:14:13;;;;;;;19.80;9.90;;;;;;;15.75;100.00;100555.25;105813;1265;97932;-82
2023/10/13 11:17:00;;;;;;;16.30;9.20;;;;;;;15.89;100.00;100549.02;106088;1261;98006;-82
2023/10/13 11:19:45;;;;;;;19.90;9.70;;;;;;;16.00;100.00;100543.73;106009;1261;101348;-81
2023/10/13 11:22:41;;;;;;;16.70;8.00;;;;;;;16.08;100.00;100540.91;106137;1261;100532;-81
2023/10/13 11:25:34;;;;;;;22.80;9.80;;;;;;;16.14;100.00;100534.70;105986;1261;98197;-82
2023/10/13 11:28:20;;;;;;;18.10;9.60;;;;;;;16.17;100.00;100535.04;105948;1264;97992;-82
2023/10/13 11:31:13;;;;;;;18.50;8.80;;;;;;;16.21;100.00;100529.71;105953;1266;97904;-81
2023/10/13 11:34:02;;;;;;;16.70;9.10;;;;;;;16.24;100.00;100529.12;106008;1261;101342;-83
2023/10/13 11:36:47;;;;;;;19.60;9.90;;;;;;;16.32;100.00;100524.11;106273;1266;99616;-82
2023/10/13 11:39:33;;;;;;;21.50;9.30;;;;;;;16.45;100.00;100523.91;106187;1264;99019;-82
2023/10/13 11:42:19;;;;;;;18.80;9.60;;;;;;;16.60;100.00;100518.59;105948;1261;98000;-82
2023/10/13 11:48:14;;;;;;;19.40;9.60;;;;;;;16.87;100.00;100511.85;105715;1261;101524;-82
2023/10/13 11:51:01;;;;;;;14.60;9.10;;;;;;;16.98;100.00;100503.71;105809;1264;99109;-81
2023/10/13 11:53:51;;;;;;;17.10;9.60;;;;;;;17.07;100.00;100503.32;105831;1267;98532;-82
2023/10/13 11:56:38;;;;;;;18.50;8.80;;;;;;;17.16;100.00;100500.29;105736;1261;97908;-81
2023/10/13 11:59:27;;;;;;;15.60;9.50;;;;;;;17.24;100.00;100492.19;105887;1260;97863;-81
2023/10/13 12:05:12;;;;;;;15.30;8.90;;;;;;;17.42;100.00;100485.06;106019;1262;100042;-81
2023/10/13 12:08:03;;;;;;;18.80;9.40;;;;;;;17.48;100.00;100477.49;106089;1260;99031;-82
2023/10/13 12:10:59;;;;;;;17.50;8.70;;;;;;;17.58;100.00;100472.94;105938;1264;97966;-80
2023/10/13 12:13:45;;;;;;;20.30;11.20;;;;;;;17.70;100.00;100468.23;105823;1260;98581;-81
2023/10/13 12:16:34;;;;;;;17.10;8.70;;;;;;;17.80;100.00;100464.44;105970;1261;103155;-82
2023/10/13 12:19:23;;;;;;;20.00;9.50;;;;;;;17.90;100.00;100458.21;106116;1261;100302;-82
2023/10/13 12:22:09;;;;;;;18.40;8.70;;;;;;;18.00;100.00;100452.30;106508;1265;98046;-81
2023/10/13 12:24:56;;;;;;;14.10;7.80;;;;;;;18.10;100.00;100461.79;106005;1263;97963;-80
2023/10/13 12:27:49;;;;;;;17.00;6.70;;;;;;;18.18;100.00;100461.25;105935;1260;97898;-81
2023/10/13 12:30:53;;;;;;;16.20;7.00;;;;;;;18.25;100.00;100459.02;105842;1260;101390;-81
2023/10/13 12:33:40;;;;;;;16.70;7.10;;;;;;;18.32;100.00;100454.23;106182;1261;99125;-82
2023/10/13 12:36:31;;;;;;;13.90;6.60;;;;;;;18.37;100.00;100448.20;105929;1260;97921;-81
2023/10/13 12:54:23;;;;;;;19.50;7.30;;;;;;;18.66;99.79;100452.55;105951;1261;97895;-82
2023/10/13 12:57:09;;;;;;;12.70;7.30;;;;;;;18.65;99.49;100449.69;105967;1261;98425;-81
2023/10/13 12:59:55;;;;;;;15.70;8.70;;;;;;;18.61;98.92;100442.88;105916;1263;101380;-80
2023/10/13 13:02:41;;;;;;;19.80;8.50;;;;;;;18.56;98.88;100431.30;106128;1265;100046;-81
2023/10/13 13:05:31;;;;;;;15.00;7.60;;;;;;;18.58;99.15;100430.52;106202;1261;97844;-82
2023/10/13 13:08:22;;;;;;;19.80;8.30;;;;;;;18.62;99.21;100427.54;105984;1260;97962;-82
2023/10/13 13:11:07;;;;;;;19.70;8.40;;;;;;;18.64;99.39;100423.52;105930;1260;98056;-82
2023/10/13 13:13:52;;;;;;;15.10;8.80;;;;;;;18.64;99.11;100423.10;106150;1264;102726;-81
2023/10/13 13:16:39;;;;;;;18.80;8.50;;;;;;;18.62;98.80;100417.77;106111;1264;100109;-81
2023/10/13 13:19:25;;;;;;;18.90;9.10;;;;;;;18.57;98.75;100413.29;106169;1260;97788;-81
2023/10/13 13:22:11;;;;;;;19.00;8.50;;;;;;;18.53;98.54;100408.92;106124;1260;97968;-81
2023/10/13 13:24:57;;;;;;;13.40;8.20;;;;;;;18.48;98.81;100410.86;106020;1261;100448;-79
2023/10/13 13:27:43;;;;;;;21.50;10.40;;;;;;;18.45;99.03;100412.09;106055;1260;102632;-80
2023/10/13 13:30:33;;;;;;;17.00;8.00;;;;;;;18.41;98.81;100398.27;106066;1260;99097;-81
2023/10/13 13:33:23;;;;;;;19.20;9.20;;;;;;;18.36;99.00;100387.81;106254;1261;99196;-82
2023/10/13 13:36:16;;;;;;;12.70;8.00;;;;;;;18.32;99.05;100391.80;105893;1264;97970;-79
2023/10/13 13:39:02;;;;;;;18.50;8.30;;;;;;;18.28;99.27;100395.52;105367;1267;98422;-80
2023/10/13 13:41:50;;;;;;;14.10;8.60;;;;;;;18.27;99.49;100398.81;105485;1265;101356;-80
2023/10/13 13:44:38;;;;;;;15.80;9.70;;;;;;;18.27;99.80;100394.74;105474;1261;108651;-80
2023/10/13 13:47:24;;;;;;;25.50;9.60;;;;;;;18.25;99.73;100390.42;105404;1261;98046;-79
2023/10/13 13:50:16;;;;;;;17.80;9.70;;;;;;;18.25;100.00;100387.77;105603;1265;97959;-80
2023/10/13 13:53:08;;;;;;;19.40;9.90;;;;;;;18.24;100.00;100383.19;105413;1262;97873;-80
2023/10/13 13:55:54;;;;;;;15.90;9.30;;;;;;;18.23;100.00;100375.95;105431;1263;101340;-80
2023/10/13 13:58:40;;;;;;;22.30;10.80;;;;;;;18.22;100.00;100373.98;105359;1266;100565;-80
2023/10/13 14:01:26;;;;;;;21.60;10.60;;;;;;;18.22;100.00;100373.94;105406;1265;98936;-81
2023/10/13 14:04:14;;;;;;;20.20;9.90;;;;;;;18.22;100.00;100372.95;105556;1261;97995;-80
2023/10/13 14:07:00;;;;;;;17.90;10.30;;;;;;;18.21;100.00;100374.63;105577;1261;97803;-80
2023/10/13 14:09:51;;;;;;;13.60;10.00;;;;;;;18.21;100.00;100365.36;105543;1260;102685;-80
2023/10/13 14:12:43;;;;;;;;;;;;;;;18.21;100.00;100356.14;105535;1262;100334;-80
2023/10/13 14:15:29;;;;;;;15.10;9.70;;;;;;;18.19;100.00;100353.44;105836;1261;98599;-81
2023/10/13 14:18:15;;;;;;;20.30;9.90;;;;;;;18.19;100.00;100355.49;106021;1261;97893;-80
2023/10/13 14:21:03;;;;;;;18.70;10.80;;;;;;;18.19;100.00;100353.81;106011;1261;98492;-81
2023/10/13 14:23:53;;;;;;;18.10;12.10;;;;;;;18.20;100.00;100352.09;105839;1261;102734;-80
2023/10/13 14:26:39;;;;;;;18.20;11.20;;;;;;;18.20;100.00;100352.25;105317;1264;100328;-78
2023/10/13 14:29:26;;;;;;;21.50;11.60;;;;;;;18.21;100.00;100353.08;105269;1266;98407;-79
2023/10/13 14:32:15;;;;;;;23.40;12.00;;;;;;;18.21;100.00;100347.56;105186;1280;192950;-80
2023/10/13 14:35:10;;;;;;;22.30;11.30;;;;;;;18.21;100.00;100346.27;105750;1261;98928;-81
2023/10/13 14:37:58;;;;;;;16.30;10.80;;;;;;;18.21;100.00;100343.44;105445;1265;101415;-80
2023/10/13 14:40:44;;;;;;;18.90;11.60;;;;;;;18.21;100.00;100337.67;106026;1264;99130;-79
2023/10/13 14:43:29;;;;;;;16.30;11.50;;;;;;;18.20;100.00;100329.92;106159;1261;99388;-81
2023/10/13 14:46:25;;;;;;;19.50;12.50;;;;;;;18.20;100.00;100326.13;105882;1267;97804;-80
2023/10/13 14:49:11;;;;;;;17.40;11.30;;;;;;;18.20;100.00;100323.84;106013;1267;98484;-80
2023/10/13 14:51:59;;;;;;;24.90;12.20;;;;;;;18.20;100.00;100322.48;106070;1266;102064;-81
2023/10/13 14:54:45;;;;;;;23.80;12.60;;;;;;;18.19;100.00;100317.96;106384;1261;99125;-82
2023/10/13 14:57:30;;;;;;;24.60;14.20;;;;;;;18.17;100.00;100312.84;106246;1261;98776;-81
2023/10/13 15:00:24;;;;;;;21.70;14.40;;;;;;;18.15;100.00;100305.52;106036;1266;97911;-81
2023/10/13 15:03:10;;;;;;;18.10;13.20;;;;;;;18.13;100.00;100298.98;106070;1261;97877;-81
2023/10/13 15:05:55;;;;;;;19.20;13.20;;;;;;;18.11;100.00;100297.58;106104;1265;101340;-80
2023/10/13 15:08:45;;;;;;;21.70;13.80;;;;;;;18.07;100.00;100299.70;105945;1264;100799;-81
2023/10/13 15:11:37;;;;;;;21.00;13.80;;;;;;;18.05;100.00;100297.59;105921;1262;99054;-81
2023/10/13 15:14:23;;;;;;;23.30;13.70;;;;;;;18.01;100.00;100291.62;105946;1262;98071;-81
2023/10/13 15:17:09;;;;;;;22.40;16.10;;;;;;;17.98;100.00;100281.64;106251;1261;97985;-80
2023/10/13 15:19:55;;;;;;;24.10;16.30;;;;;;;17.95;100.00;100276.05;105352;1261;102353;-79
2023/10/13 15:22:40;;;;;;;33.50;17.10;;;;;;;17.92;100.00;100276.41;105388;1261;99274;-78
2023/10/13 15:25:32;;;;;;;24.70;17.30;;;;;;;17.88;100.00;100275.92;105469;1261;98668;-80
2023/10/13 15:28:20;;;;;;;23.10;15.50;;;;;;;17.84;100.00;100270.37;105409;1266;97985;-81
2023/10/13 15:31:22;;;;;;;21.60;15.00;;;;;;;17.82;100.00;100266.30;105484;1261;98509;-80
2023/10/13 15:34:17;;;;;;;26.00;16.70;;;;;;;17.77;100.00;100256.48;105995;1261;102796;-80
2023/10/13 15:37:05;;;;;;;19.60;14.90;;;;;;;17.74;100.00;100252.98;105965;1261;100344;-81
2023/10/13 15:39:52;;;;;;;20.50;15.00;;;;;;;17.72;100.00;100247.98;106174;1261;97973;-80
2023/10/13 15:42:41;;;;;;;22.60;14.60;;;;;;;17.68;100.00;100246.96;105610;1261;97979;-80